sensor_id;sensor_type;location;lat;lon;timestamp;temperature;humidity
35680;DHT22;21803;53.586;10.040;2022-12-18T00:02:14;16.40;40.90
35680;DHT22;21803;53.586;10.040;2022-12-18T00:04:39;16.40;40.90
35680;DHT22;21803;53.586;10.040;2022-12-18T00:07:05;16.40;41.00
35680;DHT22;21803;53.586;10.040;2022-12-18T00:09:30;17.40;41.40
35680;DHT22;21803;53.586;10.040;2022-12-18T00:11:56;16.40;41.00
35680;DHT22;21803;53.586;10.040;2022-12-18T00:14:21;16.40;40.90
35680;DHT22;21803;53.586;10.040;2022-12-18T00:16:47;16.40;40.90
35680;DHT22;21803;53.586;10.040;2022-12-18T00:19:14;16.40;40.90
35680;DHT22;21803;53.586;10.040;2022-12-18T00:21:40;16.40;40.90
35680;DHT22;21803;53.586;10.040;2022-12-18T00:24:06;16.30;40.90
35680;DHT22;21803;53.586;10.040;2022-12-18T00:26:34;16.40;40.90
35680;DHT22;21803;53.586;10.040;2022-12-18T00:29:06;16.40;40.90
35680;DHT22;21803;53.586;10.040;2022-12-18T00:31:32;16.50;40.90
35680;DHT22;21803;53.586;10.040;2022-12-18T00:33:58;16.50;40.90
35680;DHT22;21803;53.586;10.040;2022-12-18T00:36:27;16.50;40.90
35680;DHT22;21803;53.586;10.040;2022-12-18T00:38:54;16.40;40.90
35680;DHT22;21803;53.586;10.040;2022-12-18T00:41:20;16.40;40.90
35680;DHT22;21803;53.586;10.040;2022-12-18T00:44:05;16.40;40.90
35680;DHT22;21803;53.586;10.040;2022-12-18T00:46:31;16.40;40.90
35680;DHT22;21803;53.586;10.040;2022-12-18T00:48:57;16.40;40.90
35680;DHT22;21803;53.586;10.040;2022-12-18T00:51:24;16.40;40.90
35680;DHT22;21803;53.586;10.040;2022-12-18T00:53:49;16.40;40.90
35680;DHT22;21803;53.586;10.040;2022-12-18T00:56:15;16.40;40.90
35680;DHT22;21803;53.586;10.040;2022-12-18T00:58:40;16.40;40.90
35680;DHT22;21803;53.586;10.040;2022-12-18T01:01:07;16.40;40.90
35680;DHT22;21803;53.586;10.040;2022-12-18T01:03:33;16.40;40.90
35680;DHT22;21803;53.586;10.040;2022-12-18T01:05:59;16.40;41.00
35680;DHT22;21803;53.586;10.040;2022-12-18T01:08:24;16.30;40.90
35680;DHT22;21803;53.586;10.040;2022-12-18T01:10:50;16.40;40.90
35680;DHT22;21803;53.586;10.040;2022-12-18T01:13:16;16.40;41.00
35680;DHT22;21803;53.586;10.040;2022-12-18T01:15:50;16.40;41.00
35680;DHT22;21803;53.586;10.040;2022-12-18T01:18:16;16.40;40.90
35680;DHT22;21803;53.586;10.040;2022-12-18T01:20:41;16.40;40.90
35680;DHT22;21803;53.586;10.040;2022-12-18T01:23:07;16.40;40.90
35680;DHT22;21803;53.586;10.040;2022-12-18T01:25:32;16.40;41.00
35680;DHT22;21803;53.586;10.040;2022-12-18T01:27:58;16.40;40.90
35680;DHT22;21803;53.586;10.040;2022-12-18T01:30:23;16.40;40.90
35680;DHT22;21803;53.586;10.040;2022-12-18T01:32:49;16.40;40.90
35680;DHT22;21803;53.586;10.040;2022-12-18T01:35:14;16.40;40.80
35680;DHT22;21803;53.586;10.040;2022-12-18T01:37:40;16.40;40.80
35680;DHT22;21803;53.586;10.040;2022-12-18T01:40:06;16.40;40.80
35680;DHT22;21803;53.586;10.040;2022-12-18T01:42:32;16.40;40.80
35680;DHT22;21803;53.586;10.040;2022-12-18T01:45:02;16.40;40.80
35680;DHT22;21803;53.586;10.040;2022-12-18T01:47:45;16.40;40.70
35680;DHT22;21803;53.586;10.040;2022-12-18T01:52:45;16.40;40.80
35680;DHT22;21803;53.586;10.040;2022-12-18T01:55:12;16.40;40.80
35680;DHT22;21803;53.586;10.040;2022-12-18T01:57:40;16.40;40.70
35680;DHT22;21803;53.586;10.040;2022-12-18T02:00:13;16.40;40.70
35680;DHT22;21803;53.586;10.040;2022-12-18T02:02:40;16.40;40.70
35680;DHT22;21803;53.586;10.040;2022-12-18T02:05:07;16.40;40.70
35680;DHT22;21803;53.586;10.040;2022-12-18T02:13:14;16.40;40.70
35680;DHT22;21803;53.586;10.040;2022-12-18T02:15:57;16.40;40.70
35680;DHT22;21803;53.586;10.040;2022-12-18T02:18:29;16.40;41.30
35680;DHT22;21803;53.586;10.040;2022-12-18T02:26:36;16.40;40.70
35680;DHT22;21803;53.586;10.040;2022-12-18T02:29:10;16.40;40.70
35680;DHT22;21803;53.586;10.040;2022-12-18T02:31:45;16.40;40.70
35680;DHT22;21803;53.586;10.040;2022-12-18T02:34:13;16.40;40.70
35680;DHT22;21803;53.586;10.040;2022-12-18T02:36:41;16.40;40.70
35680;DHT22;21803;53.586;10.040;2022-12-18T02:39:11;16.40;40.70
35680;DHT22;21803;53.586;10.040;2022-12-18T02:41:38;16.40;40.60
35680;DHT22;21803;53.586;10.040;2022-12-18T02:44:12;16.40;40.60
35680;DHT22;21803;53.586;10.040;2022-12-18T02:46:41;16.40;41.20
35680;DHT22;21803;53.586;10.040;2022-12-18T02:52:01;16.40;40.60
35680;DHT22;21803;53.586;10.040;2022-12-18T02:54:47;16.40;40.60
35680;DHT22;21803;53.586;10.040;2022-12-18T02:59:59;16.40;40.50
35680;DHT22;21803;53.586;10.040;2022-12-18T03:02:33;16.40;40.60
35680;DHT22;21803;53.586;10.040;2022-12-18T03:07:38;16.40;40.60
35680;DHT22;21803;53.586;10.040;2022-12-18T03:10:06;16.40;40.50
35680;DHT22;21803;53.586;10.040;2022-12-18T03:12:36;16.40;40.50
35680;DHT22;21803;53.586;10.040;2022-12-18T03:15:10;16.40;40.60
35680;DHT22;21803;53.586;10.040;2022-12-18T03:17:41;17.40;41.00
35680;DHT22;21803;53.586;10.040;2022-12-18T03:20:12;16.40;40.50
35680;DHT22;21803;53.586;10.040;2022-12-18T03:22:42;16.40;40.50
35680;DHT22;21803;53.586;10.040;2022-12-18T03:25:10;16.40;40.50
35680;DHT22;21803;53.586;10.040;2022-12-18T03:27:39;16.40;40.50
35680;DHT22;21803;53.586;10.040;2022-12-18T03:30:08;16.40;40.50
35680;DHT22;21803;53.586;10.040;2022-12-18T03:32:52;16.40;40.50
35680;DHT22;21803;53.586;10.040;2022-12-18T03:35:26;16.40;40.40
35680;DHT22;21803;53.586;10.040;2022-12-18T03:37:53;16.40;40.50
35680;DHT22;21803;53.586;10.040;2022-12-18T03:40:26;16.40;40.40
35680;DHT22;21803;53.586;10.040;2022-12-18T03:43:02;16.40;40.50
35680;DHT22;21803;53.586;10.040;2022-12-18T03:45:37;16.40;40.50
35680;DHT22;21803;53.586;10.040;2022-12-18T03:48:15;16.40;40.50
35680;DHT22;21803;53.586;10.040;2022-12-18T03:53:52;16.40;40.40
35680;DHT22;21803;53.586;10.040;2022-12-18T03:56:21;16.40;40.40
35680;DHT22;21803;53.586;10.040;2022-12-18T03:58:48;16.40;40.40
35680;DHT22;21803;53.586;10.040;2022-12-18T04:01:16;16.30;40.30
35680;DHT22;21803;53.586;10.040;2022-12-18T04:03:43;16.40;40.40
35680;DHT22;21803;53.586;10.040;2022-12-18T04:06:10;16.40;40.40
35680;DHT22;21803;53.586;10.040;2022-12-18T04:08:36;16.40;40.40
35680;DHT22;21803;53.586;10.040;2022-12-18T04:11:02;16.40;40.40
35680;DHT22;21803;53.586;10.040;2022-12-18T04:13:30;16.40;40.40
35680;DHT22;21803;53.586;10.040;2022-12-18T04:15:57;16.40;40.40
35680;DHT22;21803;53.586;10.040;2022-12-18T04:18:22;16.40;40.40
35680;DHT22;21803;53.586;10.040;2022-12-18T04:20:48;16.40;40.40
35680;DHT22;21803;53.586;10.040;2022-12-18T04:23:13;16.40;40.40
35680;DHT22;21803;53.586;10.040;2022-12-18T04:25:39;16.40;40.40
35680;DHT22;21803;53.586;10.040;2022-12-18T04:28:04;16.40;40.40
35680;DHT22;21803;53.586;10.040;2022-12-18T04:30:30;16.40;40.40
35680;DHT22;21803;53.586;10.040;2022-12-18T04:32:56;16.40;40.40
35680;DHT22;21803;53.586;10.040;2022-12-18T04:35:21;16.40;40.40
35680;DHT22;21803;53.586;10.040;2022-12-18T04:37:46;16.40;40.40
35680;DHT22;21803;53.586;10.040;2022-12-18T04:40:12;16.40;40.80
35680;DHT22;21803;53.586;10.040;2022-12-18T04:42:39;16.40;40.40
35680;DHT22;21803;53.586;10.040;2022-12-18T04:45:06;16.40;40.40
35680;DHT22;21803;53.586;10.040;2022-12-18T04:47:31;16.30;40.30
35680;DHT22;21803;53.586;10.040;2022-12-18T04:49:57;16.40;40.40
35680;DHT22;21803;53.586;10.040;2022-12-18T04:52:22;16.30;40.30
35680;DHT22;21803;53.586;10.040;2022-12-18T04:54:48;16.40;40.40
35680;DHT22;21803;53.586;10.040;2022-12-18T04:57:13;16.40;40.40
35680;DHT22;21803;53.586;10.040;2022-12-18T04:59:39;16.40;40.40
35680;DHT22;21803;53.586;10.040;2022-12-18T05:02:05;16.40;40.40
35680;DHT22;21803;53.586;10.040;2022-12-18T05:04:30;16.40;40.40
35680;DHT22;21803;53.586;10.040;2022-12-18T05:06:56;16.40;40.40
35680;DHT22;21803;53.586;10.040;2022-12-18T05:09:21;16.40;40.30
35680;DHT22;21803;53.586;10.040;2022-12-18T05:11:47;17.40;40.80
35680;DHT22;21803;53.586;10.040;2022-12-18T05:14:12;16.40;40.30
35680;DHT22;21803;53.586;10.040;2022-12-18T05:16:38;16.30;40.20
35680;DHT22;21803;53.586;10.040;2022-12-18T05:19:03;16.40;40.30
35680;DHT22;21803;53.586;10.040;2022-12-18T05:21:29;16.40;40.20
35680;DHT22;21803;53.586;10.040;2022-12-18T05:23:54;16.40;40.30
35680;DHT22;21803;53.586;10.040;2022-12-18T05:26:20;16.40;40.30
35680;DHT22;21803;53.586;10.040;2022-12-18T05:28:46;16.30;40.10
35680;DHT22;21803;53.586;10.040;2022-12-18T05:31:11;16.30;40.20
35680;DHT22;21803;53.586;10.040;2022-12-18T05:33:37;16.40;40.20
35680;DHT22;21803;53.586;10.040;2022-12-18T05:36:05;16.40;40.20
35680;DHT22;21803;53.586;10.040;2022-12-18T05:38:32;16.40;40.20
35680;DHT22;21803;53.586;10.040;2022-12-18T05:40:58;16.40;40.20
35680;DHT22;21803;53.586;10.040;2022-12-18T05:43:25;16.40;40.20
35680;DHT22;21803;53.586;10.040;2022-12-18T05:45:51;16.40;40.20
35680;DHT22;21803;53.586;10.040;2022-12-18T05:48:18;16.40;40.30
35680;DHT22;21803;53.586;10.040;2022-12-18T05:50:45;16.40;40.20
35680;DHT22;21803;53.586;10.040;2022-12-18T05:53:13;16.40;40.30
35680;DHT22;21803;53.586;10.040;2022-12-18T05:55:40;16.40;40.20
35680;DHT22;21803;53.586;10.040;2022-12-18T05:58:07;16.40;40.20
35680;DHT22;21803;53.586;10.040;2022-12-18T06:00:35;16.30;40.20
35680;DHT22;21803;53.586;10.040;2022-12-18T06:03:01;16.40;40.20
35680;DHT22;21803;53.586;10.040;2022-12-18T06:05:27;16.40;40.30
35680;DHT22;21803;53.586;10.040;2022-12-18T06:07:53;16.40;40.20
35680;DHT22;21803;53.586;10.040;2022-12-18T06:10:18;16.30;40.20
35680;DHT22;21803;53.586;10.040;2022-12-18T06:12:44;16.40;40.20
35680;DHT22;21803;53.586;10.040;2022-12-18T06:15:10;16.40;40.20
35680;DHT22;21803;53.586;10.040;2022-12-18T06:17:36;16.30;40.10
35680;DHT22;21803;53.586;10.040;2022-12-18T06:20:02;16.30;40.10
35680;DHT22;21803;53.586;10.040;2022-12-18T06:22:27;16.30;40.10
35680;DHT22;21803;53.586;10.040;2022-12-18T06:24:53;16.40;40.20
35680;DHT22;21803;53.586;10.040;2022-12-18T06:27:18;16.30;40.10
35680;DHT22;21803;53.586;10.040;2022-12-18T06:29:44;16.30;40.10
35680;DHT22;21803;53.586;10.040;2022-12-18T06:32:10;16.40;40.10
35680;DHT22;21803;53.586;10.040;2022-12-18T06:34:39;16.30;40.10
35680;DHT22;21803;53.586;10.040;2022-12-18T06:37:04;16.30;40.10
35680;DHT22;21803;53.586;10.040;2022-12-18T06:39:30;16.30;40.10
35680;DHT22;21803;53.586;10.040;2022-12-18T06:41:55;16.40;40.10
35680;DHT22;21803;53.586;10.040;2022-12-18T06:44:21;16.40;40.10
35680;DHT22;21803;53.586;10.040;2022-12-18T06:46:46;16.40;40.10
35680;DHT22;21803;53.586;10.040;2022-12-18T06:49:12;16.40;40.10
35680;DHT22;21803;53.586;10.040;2022-12-18T06:51:37;16.40;40.10
35680;DHT22;21803;53.586;10.040;2022-12-18T06:54:03;16.30;40.00
35680;DHT22;21803;53.586;10.040;2022-12-18T06:56:29;16.40;40.10
35680;DHT22;21803;53.586;10.040;2022-12-18T06:58:54;16.40;40.10
35680;DHT22;21803;53.586;10.040;2022-12-18T07:01:20;16.40;40.00
35680;DHT22;21803;53.586;10.040;2022-12-18T07:03:46;16.40;40.10
35680;DHT22;21803;53.586;10.040;2022-12-18T07:06:22;16.40;40.00
35680;DHT22;21803;53.586;10.040;2022-12-18T07:08:49;16.40;40.40
35680;DHT22;21803;53.586;10.040;2022-12-18T07:11:16;16.40;40.10
35680;DHT22;21803;53.586;10.040;2022-12-18T07:13:42;16.40;40.10
35680;DHT22;21803;53.586;10.040;2022-12-18T07:16:19;16.30;40.60
35680;DHT22;21803;53.586;10.040;2022-12-18T07:18:45;16.30;40.00
35680;DHT22;21803;53.586;10.040;2022-12-18T07:21:17;16.30;40.00
35680;DHT22;21803;53.586;10.040;2022-12-18T07:23:43;16.40;40.00
35680;DHT22;21803;53.586;10.040;2022-12-18T07:26:13;16.30;40.00
35680;DHT22;21803;53.586;10.040;2022-12-18T07:28:40;16.30;40.60
35680;DHT22;21803;53.586;10.040;2022-12-18T07:31:14;16.40;40.10
35680;DHT22;21803;53.586;10.040;2022-12-18T07:33:41;16.40;40.00
35680;DHT22;21803;53.586;10.040;2022-12-18T07:36:07;16.30;40.00
35680;DHT22;21803;53.586;10.040;2022-12-18T07:38:35;16.30;40.00
35680;DHT22;21803;53.586;10.040;2022-12-18T07:41:05;16.30;40.00
35680;DHT22;21803;53.586;10.040;2022-12-18T07:43:31;16.30;39.90
35680;DHT22;21803;53.586;10.040;2022-12-18T07:45:58;16.30;40.00
35680;DHT22;21803;53.586;10.040;2022-12-18T07:48:23;16.30;40.00
35680;DHT22;21803;53.586;10.040;2022-12-18T07:50:49;16.30;39.90
35680;DHT22;21803;53.586;10.040;2022-12-18T07:53:14;16.30;39.90
35680;DHT22;21803;53.586;10.040;2022-12-18T07:55:41;16.30;39.90
35680;DHT22;21803;53.586;10.040;2022-12-18T07:58:07;16.30;39.90
35680;DHT22;21803;53.586;10.040;2022-12-18T08:00:33;16.30;39.80
35680;DHT22;21803;53.586;10.040;2022-12-18T08:02:59;16.30;39.80
35680;DHT22;21803;53.586;10.040;2022-12-18T08:05:25;16.30;39.80
35680;DHT22;21803;53.586;10.040;2022-12-18T08:07:50;16.30;39.80
35680;DHT22;21803;53.586;10.040;2022-12-18T08:10:16;16.30;39.80
35680;DHT22;21803;53.586;10.040;2022-12-18T08:12:42;16.40;39.90
35680;DHT22;21803;53.586;10.040;2022-12-18T08:15:08;16.40;39.90
35680;DHT22;21803;53.586;10.040;2022-12-18T08:17:34;16.40;39.90
35680;DHT22;21803;53.586;10.040;2022-12-18T08:19:59;16.40;39.90
35680;DHT22;21803;53.586;10.040;2022-12-18T08:22:25;16.40;39.90
35680;DHT22;21803;53.586;10.040;2022-12-18T08:24:51;16.40;39.90
35680;DHT22;21803;53.586;10.040;2022-12-18T08:27:17;16.30;39.80
35680;DHT22;21803;53.586;10.040;2022-12-18T08:29:43;16.30;39.80
35680;DHT22;21803;53.586;10.040;2022-12-18T08:32:09;16.40;39.90
35680;DHT22;21803;53.586;10.040;2022-12-18T08:34:35;16.30;39.80
35680;DHT22;21803;53.586;10.040;2022-12-18T08:37:00;16.40;39.80
35680;DHT22;21803;53.586;10.040;2022-12-18T08:39:26;13.90;38.60
35680;DHT22;21803;53.586;10.040;2022-12-18T08:41:51;16.30;39.80
35680;DHT22;21803;53.586;10.040;2022-12-18T08:44:35;16.40;39.80
35680;DHT22;21803;53.586;10.040;2022-12-18T08:47:05;16.30;39.80
35680;DHT22;21803;53.586;10.040;2022-12-18T08:49:30;16.30;39.80
35680;DHT22;21803;53.586;10.040;2022-12-18T08:51:56;16.30;39.80
35680;DHT22;21803;53.586;10.040;2022-12-18T08:54:23;16.30;39.80
35680;DHT22;21803;53.586;10.040;2022-12-18T08:56:49;16.30;39.80
35680;DHT22;21803;53.586;10.040;2022-12-18T08:59:16;16.30;39.80
35680;DHT22;21803;53.586;10.040;2022-12-18T09:01:41;16.30;39.80
35680;DHT22;21803;53.586;10.040;2022-12-18T09:04:08;16.30;39.80
35680;DHT22;21803;53.586;10.040;2022-12-18T09:06:34;16.30;39.80
35680;DHT22;21803;53.586;10.040;2022-12-18T09:09:00;16.30;39.60
35680;DHT22;21803;53.586;10.040;2022-12-18T09:11:27;16.30;39.70
35680;DHT22;21803;53.586;10.040;2022-12-18T09:13:54;16.30;39.70
35680;DHT22;21803;53.586;10.040;2022-12-18T09:16:21;16.30;39.70
35680;DHT22;21803;53.586;10.040;2022-12-18T09:18:47;16.30;39.60
35680;DHT22;21803;53.586;10.040;2022-12-18T09:21:18;16.40;39.70
35680;DHT22;21803;53.586;10.040;2022-12-18T09:23:48;16.40;39.70
35680;DHT22;21803;53.586;10.040;2022-12-18T09:26:14;16.40;39.70
35680;DHT22;21803;53.586;10.040;2022-12-18T09:28:39;16.30;39.70
35680;DHT22;21803;53.586;10.040;2022-12-18T09:31:10;16.40;39.70
35680;DHT22;21803;53.586;10.040;2022-12-18T09:33:36;16.30;39.60
35680;DHT22;21803;53.586;10.040;2022-12-18T09:36:04;16.50;39.70
35680;DHT22;21803;53.586;10.040;2022-12-18T09:38:31;16.40;39.60
35680;DHT22;21803;53.586;10.040;2022-12-18T09:41:00;16.40;39.70
35680;DHT22;21803;53.586;10.040;2022-12-18T09:43:46;16.40;39.70
35680;DHT22;21803;53.586;10.040;2022-12-18T09:46:18;16.40;39.70
35680;DHT22;21803;53.586;10.040;2022-12-18T09:48:49;16.30;39.60
35680;DHT22;21803;53.586;10.040;2022-12-18T09:51:31;16.30;39.60
35680;DHT22;21803;53.586;10.040;2022-12-18T09:54:03;16.40;39.70
35680;DHT22;21803;53.586;10.040;2022-12-18T09:56:34;16.40;39.70
35680;DHT22;21803;53.586;10.040;2022-12-18T09:59:02;16.40;39.70
35680;DHT22;21803;53.586;10.040;2022-12-18T10:01:29;16.40;39.60
35680;DHT22;21803;53.586;10.040;2022-12-18T10:03:55;16.30;39.60
35680;DHT22;21803;53.586;10.040;2022-12-18T10:06:26;16.30;39.60
35680;DHT22;21803;53.586;10.040;2022-12-18T10:09:16;16.40;39.70
35680;DHT22;21803;53.586;10.040;2022-12-18T10:12:07;16.40;39.60
35680;DHT22;21803;53.586;10.040;2022-12-18T10:15:04;16.30;39.60
35680;DHT22;21803;53.586;10.040;2022-12-18T10:20:13;16.40;39.70
35680;DHT22;21803;53.586;10.040;2022-12-18T10:22:51;16.40;39.60
35680;DHT22;21803;53.586;10.040;2022-12-18T10:25:50;16.40;39.70
35680;DHT22;21803;53.586;10.040;2022-12-18T10:28:18;16.40;39.70
35680;DHT22;21803;53.586;10.040;2022-12-18T10:30:44;16.40;39.60
35680;DHT22;21803;53.586;10.040;2022-12-18T10:33:20;16.40;39.60
35680;DHT22;21803;53.586;10.040;2022-12-18T10:35:48;16.40;39.60
35680;DHT22;21803;53.586;10.040;2022-12-18T10:40:52;16.40;39.70
35680;DHT22;21803;53.586;10.040;2022-12-18T10:43:32;16.40;39.70
35680;DHT22;21803;53.586;10.040;2022-12-18T10:46:08;16.40;39.80
35680;DHT22;21803;53.586;10.040;2022-12-18T10:51:30;16.40;39.70
35680;DHT22;21803;53.586;10.040;2022-12-18T10:54:31;16.40;39.70
35680;DHT22;21803;53.586;10.040;2022-12-18T10:56:50;16.40;39.70
35680;DHT22;21803;53.586;10.040;2022-12-18T10:59:17;16.40;39.80
35680;DHT22;21803;53.586;10.040;2022-12-18T11:01:57;16.40;39.70
35680;DHT22;21803;53.586;10.040;2022-12-18T11:04:28;16.40;39.80
35680;DHT22;21803;53.586;10.040;2022-12-18T11:09:26;16.40;39.70
35680;DHT22;21803;53.586;10.040;2022-12-18T11:11:53;16.40;39.80
35680;DHT22;21803;53.586;10.040;2022-12-18T11:14:46;16.40;39.80
35680;DHT22;21803;53.586;10.040;2022-12-18T11:17:31;16.40;39.80
35680;DHT22;21803;53.586;10.040;2022-12-18T11:19:59;16.40;39.80
35680;DHT22;21803;53.586;10.040;2022-12-18T11:22:34;16.40;39.80
35680;DHT22;21803;53.586;10.040;2022-12-18T11:27:38;16.40;39.90
35680;DHT22;21803;53.586;10.040;2022-12-18T11:30:10;16.40;39.90
35680;DHT22;21803;53.586;10.040;2022-12-18T11:35:49;16.40;39.90
35680;DHT22;21803;53.586;10.040;2022-12-18T11:41:31;16.40;39.90
35680;DHT22;21803;53.586;10.040;2022-12-18T11:44:24;16.40;39.90
35680;DHT22;21803;53.586;10.040;2022-12-18T11:47:05;16.40;39.90
35680;DHT22;21803;53.586;10.040;2022-12-18T11:49:35;16.40;39.80
35680;DHT22;21803;53.586;10.040;2022-12-18T11:54:45;16.40;39.80
35680;DHT22;21803;53.586;10.040;2022-12-18T11:57:34;16.40;39.80
35680;DHT22;21803;53.586;10.040;2022-12-18T12:08:24;16.40;39.80
35680;DHT22;21803;53.586;10.040;2022-12-18T12:21:41;16.40;39.80
35680;DHT22;21803;53.586;10.040;2022-12-18T12:27:34;16.40;39.80
35680;DHT22;21803;53.586;10.040;2022-12-18T12:30:21;16.40;39.90
35680;DHT22;21803;53.586;10.040;2022-12-18T12:35:29;16.40;39.80
35680;DHT22;21803;53.586;10.040;2022-12-18T12:38:06;16.40;39.80
35680;DHT22;21803;53.586;10.040;2022-12-18T12:40:36;16.40;39.80
35680;DHT22;21803;53.586;10.040;2022-12-18T12:43:15;16.40;39.90
35680;DHT22;21803;53.586;10.040;2022-12-18T12:45:54;16.40;39.80
35680;DHT22;21803;53.586;10.040;2022-12-18T12:51:32;16.40;39.80
35680;DHT22;21803;53.586;10.040;2022-12-18T12:54:00;16.40;39.80
35680;DHT22;21803;53.586;10.040;2022-12-18T12:56:49;16.40;39.80
35680;DHT22;21803;53.586;10.040;2022-12-18T12:59:24;16.40;40.40
35680;DHT22;21803;53.586;10.040;2022-12-18T13:02:20;16.40;39.80
35680;DHT22;21803;53.586;10.040;2022-12-18T13:07:29;16.40;39.70
35680;DHT22;21803;53.586;10.040;2022-12-18T13:10:13;16.40;39.80
35680;DHT22;21803;53.586;10.040;2022-12-18T13:15:41;16.40;39.80
35680;DHT22;21803;53.586;10.040;2022-12-18T13:20:38;16.40;39.70
35680;DHT22;21803;53.586;10.040;2022-12-18T13:25:52;16.40;39.80
35680;DHT22;21803;53.586;10.040;2022-12-18T13:30:58;16.40;39.80
35680;DHT22;21803;53.586;10.040;2022-12-18T13:36:31;16.40;39.70
35680;DHT22;21803;53.586;10.040;2022-12-18T13:41:48;16.40;39.70
35680;DHT22;21803;53.586;10.040;2022-12-18T13:47:03;16.40;39.80
35680;DHT22;21803;53.586;10.040;2022-12-18T13:49:40;16.40;39.80
35680;DHT22;21803;53.586;10.040;2022-12-18T13:54:52;16.40;39.80
35680;DHT22;21803;53.586;10.040;2022-12-18T13:57:30;16.30;39.70
35680;DHT22;21803;53.586;10.040;2022-12-18T13:59:57;16.40;39.80
35680;DHT22;21803;53.586;10.040;2022-12-18T14:02:25;16.50;39.90
35680;DHT22;21803;53.586;10.040;2022-12-18T14:04:52;16.40;39.90
35680;DHT22;21803;53.586;10.040;2022-12-18T14:07:23;16.30;39.80
35680;DHT22;21803;53.586;10.040;2022-12-18T14:09:52;16.40;39.80
35680;DHT22;21803;53.586;10.040;2022-12-18T14:12:31;16.40;39.80
35680;DHT22;21803;53.586;10.040;2022-12-18T14:20:51;16.40;39.90
35680;DHT22;21803;53.586;10.040;2022-12-18T14:23:39;16.40;39.80
35680;DHT22;21803;53.586;10.040;2022-12-18T14:26:30;16.40;39.90
35680;DHT22;21803;53.586;10.040;2022-12-18T14:28:58;16.40;39.80
35680;DHT22;21803;53.586;10.040;2022-12-18T14:31:28;16.40;39.90
35680;DHT22;21803;53.586;10.040;2022-12-18T14:33:54;16.40;40.40
35680;DHT22;21803;53.586;10.040;2022-12-18T14:36:25;16.40;39.90
35680;DHT22;21803;53.586;10.040;2022-12-18T14:38:52;16.30;40.40
35680;DHT22;21803;53.586;10.040;2022-12-18T14:41:20;16.40;39.90
35680;DHT22;21803;53.586;10.040;2022-12-18T14:43:49;16.30;39.80
35680;DHT22;21803;53.586;10.040;2022-12-18T14:46:28;16.50;39.90
35680;DHT22;21803;53.586;10.040;2022-12-18T14:48:54;16.30;39.80
35680;DHT22;21803;53.586;10.040;2022-12-18T14:51:46;16.30;39.80
35680;DHT22;21803;53.586;10.040;2022-12-18T14:54:17;18.30;40.80
35680;DHT22;21803;53.586;10.040;2022-12-18T14:59:28;16.30;39.80
35680;DHT22;21803;53.586;10.040;2022-12-18T15:02:25;16.40;39.90
35680;DHT22;21803;53.586;10.040;2022-12-18T15:05:27;16.30;39.90
35680;DHT22;21803;53.586;10.040;2022-12-18T15:07:55;16.40;39.90
35680;DHT22;21803;53.586;10.040;2022-12-18T15:18:03;16.30;39.80
35680;DHT22;21803;53.586;10.040;2022-12-18T15:20:39;16.40;39.90
35680;DHT22;21803;53.586;10.040;2022-12-18T15:23:18;16.30;39.90
35680;DHT22;21803;53.586;10.040;2022-12-18T15:25:44;16.30;39.90
35680;DHT22;21803;53.586;10.040;2022-12-18T15:28:19;16.30;39.80
35680;DHT22;21803;53.586;10.040;2022-12-18T15:31:01;16.30;39.90
35680;DHT22;21803;53.586;10.040;2022-12-18T15:33:31;16.30;39.80
35680;DHT22;21803;53.586;10.040;2022-12-18T15:35:59;16.30;39.90
35680;DHT22;21803;53.586;10.040;2022-12-18T15:38:24;16.30;39.90
35680;DHT22;21803;53.586;10.040;2022-12-18T15:40:50;16.30;39.80
35680;DHT22;21803;53.586;10.040;2022-12-18T15:43:17;16.40;39.90
35680;DHT22;21803;53.586;10.040;2022-12-18T15:46:08;16.30;39.80
35680;DHT22;21803;53.586;10.040;2022-12-18T15:48:38;16.30;39.80
35680;DHT22;21803;53.586;10.040;2022-12-18T15:51:07;16.40;39.90
35680;DHT22;21803;53.586;10.040;2022-12-18T15:53:36;16.30;39.80
35680;DHT22;21803;53.586;10.040;2022-12-18T15:56:04;16.30;39.80
35680;DHT22;21803;53.586;10.040;2022-12-18T15:58:49;16.30;39.90
35680;DHT22;21803;53.586;10.040;2022-12-18T16:01:15;16.30;39.80
35680;DHT22;21803;53.586;10.040;2022-12-18T16:03:44;16.30;39.80
35680;DHT22;21803;53.586;10.040;2022-12-18T16:06:10;16.30;39.80
35680;DHT22;21803;53.586;10.040;2022-12-18T16:08:35;16.30;39.80
35680;DHT22;21803;53.586;10.040;2022-12-18T16:11:01;16.30;39.90
35680;DHT22;21803;53.586;10.040;2022-12-18T16:13:27;16.30;39.90
35680;DHT22;21803;53.586;10.040;2022-12-18T16:15:52;16.30;39.90
35680;DHT22;21803;53.586;10.040;2022-12-18T16:18:18;16.30;39.90
35680;DHT22;21803;53.586;10.040;2022-12-18T16:20:43;16.30;39.80
35680;DHT22;21803;53.586;10.040;2022-12-18T16:23:09;16.30;39.90
35680;DHT22;21803;53.586;10.040;2022-12-18T16:25:34;16.30;39.90
35680;DHT22;21803;53.586;10.040;2022-12-18T16:28:00;16.30;39.80
35680;DHT22;21803;53.586;10.040;2022-12-18T16:30:28;16.30;39.80
35680;DHT22;21803;53.586;10.040;2022-12-18T16:32:56;16.30;39.90
35680;DHT22;21803;53.586;10.040;2022-12-18T16:35:21;16.30;39.90
35680;DHT22;21803;53.586;10.040;2022-12-18T16:37:47;16.30;39.90
35680;DHT22;21803;53.586;10.040;2022-12-18T16:40:15;16.30;39.90
35680;DHT22;21803;53.586;10.040;2022-12-18T16:42:43;16.30;39.90
35680;DHT22;21803;53.586;10.040;2022-12-18T16:45:11;16.30;39.80
35680;DHT22;21803;53.586;10.040;2022-12-18T16:50:07;16.30;39.90
35680;DHT22;21803;53.586;10.040;2022-12-18T16:52:34;16.30;39.90
35680;DHT22;21803;53.586;10.040;2022-12-18T16:54:59;16.30;39.80
35680;DHT22;21803;53.586;10.040;2022-12-18T16:57:25;16.30;39.80
35680;DHT22;21803;53.586;10.040;2022-12-18T16:59:51;16.30;39.80
35680;DHT22;21803;53.586;10.040;2022-12-18T17:02:19;16.30;39.80
35680;DHT22;21803;53.586;10.040;2022-12-18T17:04:45;16.30;39.80
35680;DHT22;21803;53.586;10.040;2022-12-18T17:07:11;16.30;39.80
35680;DHT22;21803;53.586;10.040;2022-12-18T17:09:37;16.30;39.80
35680;DHT22;21803;53.586;10.040;2022-12-18T17:12:03;16.30;39.80
35680;DHT22;21803;53.586;10.040;2022-12-18T17:14:29;16.30;39.80
35680;DHT22;21803;53.586;10.040;2022-12-18T17:16:55;16.30;39.80
35680;DHT22;21803;53.586;10.040;2022-12-18T17:19:25;16.30;39.80
35680;DHT22;21803;53.586;10.040;2022-12-18T17:21:51;16.30;39.80
35680;DHT22;21803;53.586;10.040;2022-12-18T17:24:18;16.30;39.80
35680;DHT22;21803;53.586;10.040;2022-12-18T17:26:44;16.30;39.80
35680;DHT22;21803;53.586;10.040;2022-12-18T17:29:13;16.30;39.80